AirNav   Bose Proflight or Bose A20?
 
 910 users online  

01IN Community Hospital Heliport
Anderson, Indiana, USA

GOING TO ANDERSON?


FAA INFORMATION EFFECTIVE 20 JUNE 2019

Location

FAA Identifier: 01IN
Lat/Long: 40-07-59.3500N / 085-41-39.9200W
40-07.989167N / 085-41.665333W
40.1331528 / -85.6944222
(estimated)
Elevation: 890 ft. / 271 m (estimated)
Variation: 03W (1985)
From city: HELIPORT LCTD WITHIN CITY LIMITS.
Time zone: UTC -4 (UTC -5 during Standard Time)
Zip code: 46011

Heliport Operations

Heliport use: Private use, MEDICAL USE.
Activation date: 09/1972
Control tower: no
ARTCC: INDIANAPOLIS CENTER
FSS: TERRE HAUTE FLIGHT SERVICE STATION
Attendance: UNATNDD
Wind indicator: yes
Segmented circle: yes

Heliport Communications

WX AWOS-3 at AID (4 nm E): 128.55 (765-442-1245)
WX ASOS at MIE (15 nm NE): 114.4 (765-288-9617)
WX AWOS-3 at MQJ (20 nm SW): 124.175 (317-335-3037)

Nearby radio navigation aids

VOR radial/distance  VOR name  Freq  Var
MIEr249/15.1MUNCIE VOR/DME114.4003W
MZZr185/21.6MARION VOR/DME108.6003W
OKKr150/28.9KOKOMO VORTAC113.5005W
SHBr010/30.6SHELBYVILLE VOR/DME112.0001E
VHPr057/36.4BRICKYARD VORTAC116.3001E
GUSr148/37.1GRISSOM VORTAC108.4502W

 
NDB name  Hdg/Dist  Freq  Var  ID
VIDEO297/9.339403WAI .- ..
METROPOLITAN057/20.133803WUMP ..- -- .--.
NEW CASTLE317/23.038506WUWL ..- .-- .-..

Heliport Services

Airframe service: NONE
Powerplant service: NONE

Runway Information

Helipad H1

Dimensions: 45 x 45 ft. / 14 x 14 m
Surface: asphalt
Latitude: 40-07.989167N
Longitude: 085-41.665333W
Elevation: 890.0 ft.
Traffic pattern: leftleft

Heliport Ownership and Management from official FAA records

Ownership: Privately-owned
Owner: COMMUNITY HOSPITAL
1515 N MADISON AVENUE
ANDERSON, IN 46011
Phone 765-298-5125
Manager: BILL VANNESS, CEO
1515 N MADISON AVENUE
ANDERSON, IN 46011
Phone 765-298-5125
ROB HAYES 765-298-5617.

Additional Remarks

FOR CD CTC INDIANAPOLIS APCH AT 317-227-5743.

Instrument Procedures

There are no published instrument procedures at 01IN.

Some nearby airports with instrument procedures:

KAID - Anderson Municipal Airport-Darlington Field (4 nm E)
KMIE - Delaware County Regional Airport (15 nm NE)
KMQJ - Indianapolis Regional Airport (20 nm SW)
KUMP - Indianapolis Metropolitan Airport (20 nm SW)
KMZZ - Marion Municipal Airport (21 nm N)
 
Loc | Ops | Rwys | IFR | FBO | Links
Com | Nav | Svcs | Stats | Notes
Area around 01IN (Community Hospital Heliport)
 
Road maps at: MapQuest Bing Google
 
Aerial photo
No photo
 
Sectional chart

 
Airport distance calculator
Flying to Community Hospital Heliport? Find the distance to fly.

From to 01IN

Sunrise and sunset
Times for 25-Jun-2019
 Local
(UTC-4)
 Zulu
(UTC)
Morning civil twilight05:4309:43
Sunrise06:1610:16
Sunset21:1501:15
Evening civil twilight21:4801:48

Current date and time
Zulu (UTC)  26-Jun-2019 03:21:23
Local (UTC-4)  25-Jun-2019 23:21:23
 
METAR
KAID 
4nm E 
260255Z AUTO 20004KT 10SM CLR 22/16 A3002 RMK AO2 T02230163
KMIE 
15nm NE 
260253Z AUTO 22006KT 10SM CLR 25/16 A3000 RMK AO2 SLP148 T02500161 53013
KMQJ 
20nm SW 
260304Z AUTO 18004KT 10SM CLR 22/19 A3003 RMK AO1
TAF
KGUS 
37nm NW 
251900Z 2519/2701 23015G25KT 9999 FEW090 QNH2996INS BECMG 2523/2524 24012KT 9999 FEW100 QNH2998INS BECMG 2616/2617 25010G20KT 9999 FEW130 QNH2999INS BECMG 2619/2620 23015G25KT 9999 SCT050 QNH3000INS BECMG 2623/2624 19009KT 9999 BKN060 QNH3002INS TX28/2619Z TN19/2608Z
KIND 
37nm SW 
252021Z 2520/2624 23016KT P6SM FEW050 FM260200 21006KT P6SM FEW250
NOTAMs
Click for the latest NOTAMs
NOTAMs are issued by the DoD/FAA and will open in a separate window not controlled by AirNav.

 

 
 

Would you like to see your business listed on this page?

 If your business provides an interesting product or service to pilots, flight crews, aircraft, or users of the Community Hospital Heliport, you should consider listing it here.  To start the listing process, click on the button below
 
Add a business
 

Other Pages about Community Hospital Heliport

Update a link
 
Copyright © AirNav, LLC. All rights reserved. Privacy Policy  Contact